Time;durP1;ratioP1;P1;durP2;ratioP2;P2;SDS_P1;SDS_P2;PMS_P1;PMS_P2;Temp;Humidity;BMP_temperature;BMP_pressure;BME280_temperature;BME280_humidity;BME280_pressure;Samples;Min_cycle;Max_cycle;Signal;HPM_P1;HPM_P2
2022/06/05 00:01:48;;;;;;;14.35;3.88;;;25.80;96.70;;;;;;5052794;28;20044;-85
2022/06/05 00:04:33;;;;;;;10.70;3.55;;;25.70;96.70;;;;;;5061626;28;20063;-85
2022/06/05 00:07:09;;;;;;;13.23;3.72;;;25.60;96.70;;;;;;5050041;28;20048;-85
2022/06/05 00:09:45;;;;;;;11.30;3.17;;;25.60;96.70;;;;;;5049896;28;20052;-85
2022/06/05 00:12:16;;;;;;;8.43;2.78;;;25.60;96.70;;;;;;5050295;28;20052;-87
2022/06/05 00:14:45;;;;;;;9.93;3.13;;;25.70;96.70;;;;;;5058119;28;20060;-85
2022/06/05 00:17:18;;;;;;;9.82;3.30;;;25.70;96.70;;;;;;5066175;28;20500;-85
2022/06/05 00:19:48;;;;;;;13.27;3.58;;;25.60;96.70;;;;;;5066148;28;20055;-85
2022/06/05 00:22:16;;;;;;;10.63;3.55;;;25.60;96.70;;;;;;5067393;28;20043;-85
2022/06/05 00:24:45;;;;;;;12.45;3.65;;;25.60;96.70;;;;;;5064796;28;20115;-85
2022/06/05 00:27:19;;;;;;;10.15;3.60;;;25.50;96.70;;;;;;5043933;28;20072;-85
2022/06/05 00:29:58;;;;;;;10.40;3.05;;;25.50;96.70;;;;;;5068562;28;20098;-85
2022/06/05 00:32:37;;;;;;;13.57;3.80;;;25.50;96.70;;;;;;5067936;28;20094;-85
2022/06/05 00:35:06;;;;;;;11.23;3.75;;;25.50;96.70;;;;;;5066916;28;20106;-86
2022/06/05 00:37:52;;;;;;;12.93;3.40;;;25.50;96.70;;;;;;5054503;28;20055;-85
2022/06/05 00:40:40;;;;;;;8.00;2.78;;;25.50;96.70;;;;;;5040598;28;20402;-85
2022/06/05 00:43:12;;;;;;;8.00;2.67;;;25.60;96.70;;;;;;5061406;28;20052;-85
2022/06/05 00:45:42;;;;;;;9.20;3.03;;;25.60;96.70;;;;;;5057100;28;20539;-84
2022/06/05 00:48:12;;;;;;;10.13;3.30;;;25.60;96.70;;;;;;5058754;28;20510;-85
2022/06/05 00:50:42;;;;;;;11.60;2.92;;;25.60;96.70;;;;;;5062963;28;20045;-85
2022/06/05 00:53:11;;;;;;;13.10;3.50;;;25.60;96.70;;;;;;5062861;28;20041;-85
2022/06/05 00:55:42;;;;;;;8.50;2.97;;;25.50;96.70;;;;;;5050240;28;20058;-85
2022/06/05 00:58:10;;;;;;;10.73;3.13;;;25.60;96.70;;;;;;5060847;28;20076;-84
2022/06/05 01:00:42;;;;;;;10.05;2.88;;;25.60;96.70;;;;;;5065502;28;20055;-84
2022/06/05 01:03:13;;;;;;;8.75;3.08;;;25.60;96.70;;;;;;5066491;28;20075;-85
2022/06/05 01:05:41;;;;;;;10.23;2.55;;;25.60;96.70;;;;;;5061137;28;20398;-84
2022/06/05 01:08:11;;;;;;;10.77;3.38;;;25.50;96.70;;;;;;5054430;28;20060;-85
2022/06/05 01:10:48;;;;;;;9.32;2.90;;;25.50;96.70;;;;;;5048184;28;20053;-84
2022/06/05 01:13:31;;;;;;;16.00;3.67;;;25.40;96.70;;;;;;5060687;28;20040;-84
2022/06/05 01:16:12;;;;;;;7.95;2.58;;;25.40;96.70;;;;;;5063389;28;20044;-84
2022/06/05 01:18:46;;;;;;;9.60;2.72;;;25.40;96.70;;;;;;5057919;28;20053;-84
2022/06/05 01:21:34;;;;;;;9.27;2.53;;;25.30;96.70;;;;;;5057365;28;20045;-85
2022/06/05 01:24:19;;;;;;;9.95;2.47;;;25.40;96.70;;;;;;5061620;28;20044;-84
2022/06/05 01:26:53;;;;;;;16.05;3.45;;;25.40;96.70;;;;;;5056802;28;20044;-84
2022/06/05 01:29:26;;;;;;;11.35;2.80;;;25.30;96.70;;;;;;5046624;28;20067;-84
2022/06/05 01:32:08;;;;;;;9.52;2.60;;;25.20;96.70;;;;;;5069420;28;20056;-84
2022/06/05 01:34:43;;;;;;;11.80;2.45;;;25.20;96.70;;;;;;5061828;28;20147;-84
2022/06/05 01:37:16;;;;;;;10.75;2.65;;;25.20;96.70;;;;;;5069505;28;20529;-84
2022/06/05 01:39:48;;;;;;;4.90;1.95;;;25.20;96.70;;;;;;5044390;28;20591;-85
2022/06/05 01:42:22;;;;;;;11.73;2.97;;;25.10;96.70;;;;;;5049457;28;20465;-84
2022/06/05 01:44:56;;;;;;;8.13;2.85;;;25.10;96.70;;;;;;5058533;28;20083;-84
2022/06/05 01:47:28;;;;;;;9.68;2.33;;;25.00;96.70;;;;;;5052797;28;20135;-84
2022/06/05 01:50:01;;;;;;;7.35;2.63;;;24.90;96.70;;;;;;5068958;28;20512;-84
2022/06/05 01:52:35;;;;;;;8.05;2.13;;;24.90;96.70;;;;;;5050700;28;20059;-84
2022/06/05 01:55:08;;;;;;;10.98;2.45;;;25.10;96.70;;;;;;5062236;28;20083;-84
2022/06/05 01:57:38;;;;;;;12.02;2.50;;;25.10;96.70;;;;;;5059144;28;20084;-84
2022/06/05 02:00:11;;;;;;;7.93;2.60;;;25.10;96.70;;;;;;5041856;28;20049;-85
2022/06/05 02:02:44;;;;;;;10.95;2.75;;;25.00;96.70;;;;;;5069805;28;20052;-85
2022/06/05 02:05:17;;;;;;;10.73;2.92;;;24.90;96.70;;;;;;5052521;28;20142;-85
2022/06/05 02:07:57;;;;;;;10.15;2.63;;;24.90;96.70;;;;;;5068887;28;20571;-85
2022/06/05 02:10:30;;;;;;;10.95;2.65;;;24.90;96.70;;;;;;5054983;28;20140;-84
2022/06/05 02:13:01;;;;;;;8.45;2.40;;;24.90;96.70;;;;;;5050586;28;20048;-85
2022/06/05 02:15:29;;;;;;;13.18;2.90;;;24.90;96.70;;;;;;5062978;28;20057;-85
2022/06/05 02:17:59;;;;;;;9.63;2.85;;;24.90;96.70;;;;;;5067190;28;20032;-85
2022/06/05 02:20:28;;;;;;;9.95;3.05;;;25.00;96.70;;;;;;5049257;28;20051;-85
2022/06/05 02:22:59;;;;;;;13.20;2.85;;;25.00;96.70;;;;;;5067387;28;20044;-85
2022/06/05 02:25:28;;;;;;;9.63;2.42;;;25.00;96.70;;;;;;5054974;28;20060;-84
2022/06/05 02:28:01;;;;;;;8.23;2.40;;;25.00;96.70;;;;;;5051675;28;20076;-85
2022/06/05 02:30:39;;;;;;;6.97;2.38;;;25.10;96.70;;;;;;5070104;28;20482;-85
2022/06/05 02:33:14;;;;;;;8.75;2.38;;;25.10;96.70;;;;;;5059216;28;20410;-85
2022/06/05 02:35:54;;;;;;;7.10;2.70;;;25.10;96.70;;;;;;5043862;28;20434;-85
2022/06/05 02:38:35;;;;;;;10.30;2.55;;;25.00;96.70;;;;;;5047897;28;20056;-85
2022/06/05 02:41:08;;;;;;;10.13;2.45;;;25.00;96.70;;;;;;5068962;28;20514;-86
2022/06/05 02:43:44;;;;;;;6.75;2.33;;;25.00;96.70;;;;;;5051927;28;20076;-85
2022/06/05 02:46:20;;;;;;;7.10;2.50;;;25.10;96.70;;;;;;5068883;28;20059;-85
2022/06/05 02:48:57;;;;;;;8.13;2.72;;;25.00;96.70;;;;;;5067201;28;20491;-85
2022/06/05 02:51:33;;;;;;;6.28;2.22;;;24.90;96.70;;;;;;5059158;28;20143;-85
2022/06/05 02:54:02;;;;;;;10.10;2.65;;;24.80;96.70;;;;;;5061477;28;20106;-85
2022/06/05 02:56:32;;;;;;;9.30;2.65;;;24.80;96.70;;;;;;5065858;28;20049;-84
2022/06/05 02:59:03;;;;;;;6.13;2.20;;;24.70;96.70;;;;;;5069527;28;20045;-86
2022/06/05 03:04:18;;;;;;;7.38;2.35;;;24.90;96.70;;;;;;5066381;28;20422;-85
2022/06/05 03:06:47;;;;;;;10.80;2.83;;;24.90;96.70;;;;;;5061501;28;20040;-85
2022/06/05 03:09:16;;;;;;;6.75;2.50;;;24.80;96.70;;;;;;5060555;28;20477;-86
2022/06/05 03:11:44;;;;;;;5.97;2.22;;;24.70;96.70;;;;;;5066661;28;20048;-86
2022/06/05 03:14:14;;;;;;;8.50;3.05;;;24.70;96.70;;;;;;5048506;28;20063;-86
2022/06/05 03:16:43;;;;;;;10.52;3.60;;;24.80;96.70;;;;;;5055317;28;20056;-85
2022/06/05 03:19:11;;;;;;;10.43;3.47;;;24.30;96.70;;;;;;5048763;28;20052;-85
2022/06/05 03:21:40;;;;;;;12.48;3.85;;;24.00;96.70;;;;;;5062539;28;20147;-86
2022/06/05 03:24:09;;;;;;;10.90;3.00;;;24.00;96.70;;;;;;5051267;28;20055;-85
2022/06/05 03:26:39;;;;;;;12.90;4.00;;;23.90;96.70;;;;;;5066620;28;20051;-85
2022/06/05 03:29:08;;;;;;;6.32;3.47;;;23.60;96.70;;;;;;5063435;28;20090;-85
2022/06/05 03:31:38;;;;;;;8.10;3.65;;;23.70;96.70;;;;;;5067634;28;20052;-84
2022/06/05 03:34:08;;;;;;;8.73;3.70;;;23.80;96.70;;;;;;5059968;28;20040;-83
2022/06/05 03:36:36;;;;;;;13.70;7.80;;;23.70;96.70;;;;;;5058946;28;20068;-85
2022/06/05 03:39:04;;;;;;;15.68;7.80;;;23.80;96.70;;;;;;5068645;28;20040;-87
2022/06/05 03:41:33;;;;;;;18.02;7.13;;;23.90;96.70;;;;;;5067260;28;20072;-85
2022/06/05 03:44:01;;;;;;;14.40;7.10;;;23.80;96.70;;;;;;5064213;28;20049;-85
2022/06/05 03:46:29;;;;;;;17.90;8.45;;;23.60;96.70;;;;;;5064755;28;20048;-86
2022/06/05 03:48:59;;;;;;;9.85;5.10;;;23.40;96.70;;;;;;5050863;28;20498;-86
2022/06/05 03:51:28;;;;;;;9.98;4.93;;;23.60;96.70;;;;;;5050495;28;20052;-85
2022/06/05 03:53:56;;;;;;;11.50;4.03;;;23.50;96.70;;;;;;5049894;28;20037;-85
2022/06/05 03:56:25;;;;;;;13.32;3.92;;;23.60;96.70;;;;;;5055104;28;20085;-86
2022/06/05 03:58:54;;;;;;;8.52;2.45;;;23.80;96.70;;;;;;5058031;28;20593;-85
2022/06/05 04:01:25;;;;;;;8.48;3.28;;;23.70;96.70;;;;;;5058300;28;20049;-85
2022/06/05 04:03:54;;;;;;;12.40;2.60;;;23.70;96.70;;;;;;5067481;28;20057;-85
2022/06/05 04:06:29;;;;;;;9.73;2.55;;;23.90;96.70;;;;;;5058190;28;20053;-86
2022/06/05 04:09:00;;;;;;;8.45;3.40;;;23.90;96.70;;;;;;5058454;28;20127;-86
2022/06/05 04:11:30;;;;;;;6.43;2.65;;;23.70;96.70;;;;;;5068043;28;20127;-85
2022/06/05 04:13:59;;;;;;;10.52;4.15;;;23.40;96.70;;;;;;5043124;28;20049;-85
2022/06/05 04:16:29;;;;;;;10.02;3.47;;;23.30;96.70;;;;;;5066243;28;20044;-85
2022/06/05 04:18:59;;;;;;;7.47;3.17;;;23.30;96.70;;;;;;5063278;28;20045;-86
2022/06/05 04:21:31;;;;;;;11.48;3.17;;;23.30;96.70;;;;;;5046908;28;20083;-85
2022/06/05 04:23:59;;;;;;;5.32;2.45;;;23.10;96.70;;;;;;5049250;28;20075;-85
2022/06/05 04:26:29;;;;;;;11.35;2.80;;;22.90;96.70;;;;;;5067084;28;20045;-85
2022/06/05 04:28:57;;;;;;;7.22;2.58;;;22.90;96.70;;;;;;5061435;28;20044;-85
2022/06/05 04:31:28;;;;;;;7.18;2.33;;;23.10;96.70;;;;;;5048073;28;20150;-86
2022/06/05 04:33:58;;;;;;;8.18;2.30;;;23.40;96.70;;;;;;5048413;28;20053;-85
2022/06/05 04:36:29;;;;;;;7.18;2.70;;;23.60;96.70;;;;;;5062063;28;20040;-85
2022/06/05 04:38:58;;;;;;;9.75;2.53;;;23.60;96.70;;;;;;5047194;28;20072;-84
2022/06/05 04:41:26;;;;;;;8.85;2.38;;;23.40;96.70;;;;;;5055350;28;20036;-84
2022/06/05 04:43:56;;;;;;;8.35;2.58;;;23.10;96.70;;;;;;5065803;28;20051;-84
2022/06/05 04:46:29;;;;;;;8.82;3.28;;;23.10;96.70;;;;;;5048010;28;20068;-84
2022/06/05 04:48:58;;;;;;;7.75;2.80;;;23.10;96.70;;;;;;5056476;28;20049;-84
2022/06/05 04:51:26;;;;;;;8.00;2.20;;;22.70;96.70;;;;;;5062874;28;20044;-84
2022/06/05 04:53:56;;;;;;;7.65;2.80;;;22.50;96.70;;;;;;5063281;28;20078;-84
2022/06/05 04:56:26;;;;;;;7.38;2.60;;;22.50;96.70;;;;;;5049263;28;20076;-83
2022/06/05 04:58:56;;;;;;;8.05;2.72;;;22.70;96.70;;;;;;5051423;28;20102;-84
2022/06/05 05:01:26;;;;;;;7.15;2.53;;;22.50;96.70;;;;;;5036484;28;20049;-82
2022/06/05 05:03:57;;;;;;;9.30;2.30;;;22.60;96.70;;;;;;5063933;28;20051;-84
2022/06/05 05:06:27;;;;;;;8.70;2.25;;;23.00;96.70;;;;;;5059125;28;20395;-84
2022/06/05 05:08:57;;;;;;;9.65;2.83;;;23.30;96.70;;;;;;5059694;28;20118;-84
2022/06/05 05:11:26;;;;;;;9.50;2.70;;;23.50;96.70;;;;;;5057981;28;20406;-84
2022/06/05 05:13:55;;;;;;;7.90;2.50;;;23.60;96.70;;;;;;5070970;28;20061;-84
2022/06/05 05:16:24;;;;;;;7.25;3.10;;;23.80;96.70;;;;;;5063219;28;20052;-84
2022/06/05 05:18:54;;;;;;;8.98;2.47;;;23.90;96.70;;;;;;5068371;28;20129;-84
2022/06/05 05:21:25;;;;;;;8.38;2.80;;;23.90;96.70;;;;;;5060911;28;20044;-84
2022/06/05 05:23:56;;;;;;;7.95;2.50;;;24.10;96.70;;;;;;5051606;28;20086;-84
2022/06/05 05:26:25;;;;;;;14.60;3.25;;;24.30;96.70;;;;;;5062358;28;20131;-84
2022/06/05 05:28:55;;;;;;;7.80;3.20;;;24.30;96.70;;;;;;5068990;28;20036;-83
2022/06/05 05:31:26;;;;;;;6.80;2.80;;;24.30;96.70;;;;;;5053949;28;20705;-84
2022/06/05 05:33:56;;;;;;;7.80;2.53;;;24.20;96.70;;;;;;5066466;28;20052;-85
2022/06/05 05:36:26;;;;;;;8.80;2.83;;;24.20;96.70;;;;;;5060372;28;20127;-84
2022/06/05 05:44:33;;;;;;;12.18;2.95;;;24.50;96.70;;;;;;5066677;28;20071;-84
2022/06/05 05:47:02;;;;;;;11.18;3.08;;;24.60;96.70;;;;;;5065178;28;20106;-83
2022/06/05 05:49:31;;;;;;;9.57;2.92;;;24.70;96.70;;;;;;5069066;28;20040;-84
2022/06/05 05:51:59;;;;;;;9.70;2.75;;;24.60;96.70;;;;;;5061891;28;20392;-84
2022/06/05 05:54:29;;;;;;;8.50;2.30;;;24.60;96.70;;;;;;5068097;28;20123;-85
2022/06/05 05:56:58;;;;;;;8.80;2.92;;;24.80;96.70;;;;;;5066411;28;20060;-84
2022/06/05 05:59:26;;;;;;;8.48;2.90;;;24.80;96.70;;;;;;5064502;28;20044;-85
2022/06/05 06:01:55;;;;;;;8.23;2.70;;;24.90;96.70;;;;;;5064398;28;20049;-84
2022/06/05 06:04:23;;;;;;;6.38;2.78;;;24.90;96.70;;;;;;5068397;28;20045;-85
2022/06/05 06:06:54;;;;;;;8.18;3.40;;;24.90;96.70;;;;;;5051631;28;20052;-85
2022/06/05 06:09:23;;;;;;;14.15;3.22;;;25.00;96.70;;;;;;5067881;28;20053;-84
2022/06/05 06:11:53;;;;;;;7.60;3.15;;;25.20;96.70;;;;;;5060733;28;20037;-84
2022/06/05 06:14:21;;;;;;;12.35;2.80;;;25.10;96.70;;;;;;5059161;28;20052;-84
2022/06/05 06:16:49;;;;;;;9.40;2.60;;;25.20;96.70;;;;;;5062112;28;20048;-85
2022/06/05 06:19:18;;;;;;;7.80;2.55;;;25.30;96.70;;;;;;5060956;28;20227;-84
2022/06/05 06:21:46;;;;;;;9.82;2.72;;;25.40;96.70;;;;;;5057974;28;20041;-85
2022/06/05 06:24:15;;;;;;;6.70;2.33;;;25.30;96.70;;;;;;5067898;28;20444;-84
2022/06/05 06:26:43;;;;;;;8.20;2.65;;;25.40;96.70;;;;;;5064135;28;20051;-84
2022/06/05 06:29:14;;;;;;;9.05;2.63;;;25.50;96.70;;;;;;5049259;28;20506;-85
2022/06/05 06:31:42;;;;;;;8.73;2.60;;;25.60;96.70;;;;;;5066246;28;20570;-84
2022/06/05 06:34:11;;;;;;;9.32;2.55;;;25.60;96.70;;;;;;5063862;28;20055;-84
2022/06/05 06:36:40;;;;;;;11.45;2.55;;;25.70;96.70;;;;;;5066157;28;20051;-86
2022/06/05 06:39:18;;;;;;;7.85;1.95;;;25.70;96.70;;;;;;5055769;28;20065;-85
2022/06/05 06:41:46;;;;;;;10.40;2.95;;;25.70;96.70;;;;;;5068569;28;20723;-85
2022/06/05 06:44:17;;;;;;;8.07;2.40;;;25.60;96.70;;;;;;5067980;28;20051;-85
2022/06/05 06:46:45;;;;;;;9.75;2.70;;;25.50;96.70;;;;;;5062503;28;20072;-86
2022/06/05 06:49:14;;;;;;;9.02;3.00;;;25.50;96.70;;;;;;5056832;28;20036;-85
2022/06/05 06:51:43;;;;;;;6.38;2.22;;;25.60;96.70;;;;;;5052120;28;20073;-85
2022/06/05 06:54:12;;;;;;;8.57;2.38;;;25.70;96.70;;;;;;5063731;28;20044;-85
2022/06/05 06:56:41;;;;;;;7.75;2.30;;;25.90;96.70;;;;;;5048251;28;20139;-85
2022/06/05 06:59:09;;;;;;;10.10;2.95;;;26.10;96.70;;;;;;5046962;28;20055;-85
2022/06/05 07:01:39;;;;;;;8.25;2.70;;;26.20;96.70;;;;;;5055504;28;20045;-85
2022/06/05 07:04:07;;;;;;;6.60;2.30;;;26.20;96.70;;;;;;5047937;28;20060;-85
2022/06/05 07:06:36;;;;;;;4.82;2.10;;;26.30;96.70;;;;;;5063235;28;20035;-85
2022/06/05 07:09:04;;;;;;;8.88;2.63;;;26.40;96.70;;;;;;5064881;28;20148;-85
2022/06/05 07:11:32;;;;;;;10.45;2.72;;;26.40;96.70;;;;;;5063860;28;20085;-85
2022/06/05 07:14:01;;;;;;;9.27;2.58;;;26.40;96.70;;;;;;5065913;28;20106;-84
2022/06/05 07:16:29;;;;;;;7.38;2.30;;;26.40;96.70;;;;;;5064133;28;20040;-85
2022/06/05 07:18:59;;;;;;;9.23;2.83;;;26.60;96.70;;;;;;5064372;28;20493;-85
2022/06/05 07:21:28;;;;;;;7.57;2.40;;;26.60;96.70;;;;;;5059396;28;20053;-85
2022/06/05 07:23:57;;;;;;;7.15;2.90;;;26.70;96.70;;;;;;5069051;28;20040;-85
2022/06/05 07:26:28;;;;;;;6.97;2.40;;;26.80;96.70;;;;;;5050422;28;20048;-84
2022/06/05 07:28:58;;;;;;;7.28;2.53;;;26.80;96.70;;;;;;5065326;28;20067;-83
2022/06/05 07:31:29;;;;;;;7.90;2.80;;;26.90;96.70;;;;;;5057894;28;20132;-84
2022/06/05 07:34:00;;;;;;;8.60;2.45;;;26.90;96.70;;;;;;5066383;28;20094;-83
2022/06/05 07:36:29;;;;;;;9.45;2.80;;;26.80;96.70;;;;;;5066805;28;20055;-84
2022/06/05 07:38:57;;;;;;;7.75;2.67;;;26.80;96.70;;;;;;5051915;28;20533;-84
2022/06/05 07:41:28;;;;;;;10.90;2.53;;;26.90;96.70;;;;;;5066800;28;20044;-85
2022/06/05 07:43:57;;;;;;;11.05;2.55;;;26.80;96.70;;;;;;5067642;28;20510;-84
2022/06/05 07:46:25;;;;;;;7.65;2.65;;;26.80;96.70;;;;;;5063675;28;20137;-84
2022/06/05 07:48:54;;;;;;;6.80;2.28;;;26.90;96.70;;;;;;5060368;28;20056;-83
2022/06/05 07:57:04;;;;;;;8.60;2.63;;;27.00;96.70;;;;;;5062849;28;20048;-86
2022/06/05 07:59:36;;;;;;;8.55;2.95;;;27.00;96.70;;;;;;5064088;28;20109;-82
2022/06/05 08:02:11;;;;;;;8.43;2.72;;;27.10;96.70;;;;;;5059835;28;20049;-81
2022/06/05 08:04:41;;;;;;;8.95;2.60;;;27.20;96.70;;;;;;5053419;28;20045;-84
2022/06/05 08:07:25;;;;;;;8.05;1.83;;;27.20;96.70;;;;;;5065485;28;20047;-85
2022/06/05 08:09:53;;;;;;;7.90;2.25;;;27.40;96.70;;;;;;5064891;28;20048;-84
2022/06/05 08:12:24;;;;;;;5.85;1.75;;;27.60;96.70;;;;;;5062799;28;20114;-85
2022/06/05 08:14:53;;;;;;;11.52;4.95;;;27.70;96.70;;;;;;5064383;28;20129;-85
2022/06/05 08:17:24;;;;;;;21.83;7.18;;;27.70;96.70;;;;;;5043984;28;20068;-81
2022/06/05 08:19:53;;;;;;;19.52;6.13;;;27.70;96.70;;;;;;5057140;28;20048;-89
2022/06/05 08:22:24;;;;;;;15.50;5.82;;;27.80;96.70;;;;;;5065212;28;20127;-86
2022/06/05 08:24:52;;;;;;;14.48;5.88;;;27.90;96.70;;;;;;5061147;28;20079;-85
2022/06/05 08:27:23;;;;;;;20.13;6.65;;;27.80;96.70;;;;;;5048206;28;20044;-84
2022/06/05 08:29:55;;;;;;;15.30;6.53;;;27.90;96.70;;;;;;5055614;28;20033;-79
2022/06/05 08:32:26;;;;;;;12.75;4.97;;;27.90;96.70;;;;;;5056532;28;20137;-79
2022/06/05 08:34:55;;;;;;;11.70;4.00;;;27.80;96.70;;;;;;5062105;28;20105;-83
2022/06/05 08:43:36;;;;;;;11.68;3.90;;;28.10;96.70;;;;;;5058993;28;20087;-82
2022/06/05 08:46:12;;;;;;;7.22;2.80;;;28.40;96.70;;;;;;5060565;28;20041;-81
2022/06/05 08:48:45;;;;;;;4.82;2.00;;;28.30;96.50;;;;;;5044491;28;20406;-81
2022/06/05 08:51:37;;;;;;;6.40;2.33;;;28.30;94.70;;;;;;5036865;28;20114;-80
2022/06/05 08:54:15;;;;;;;6.85;3.17;;;28.40;96.70;;;;;;5061067;28;20044;-82
2022/06/05 08:56:47;;;;;;;8.38;2.10;;;28.40;96.70;;;;;;5063390;28;20130;-83
2022/06/05 08:59:23;;;;;;;6.50;2.05;;;28.50;96.10;;;;;;5048780;28;20051;-86
2022/06/05 09:01:58;;;;;;;9.20;2.70;;;28.70;96.10;;;;;;5049392;28;20072;-87
2022/06/05 09:04:42;;;;;;;10.18;3.13;;;28.80;96.70;;;;;;5031454;28;20069;-86
2022/06/05 09:07:15;;;;;;;8.25;3.20;;;28.90;96.70;;;;;;5044830;28;20052;-80
2022/06/05 09:09:50;;;;;;;7.70;2.40;;;28.90;96.70;;;;;;5054191;28;20137;-80
2022/06/05 09:12:27;;;;;;;6.75;2.65;;;29.00;94.00;;;;;;5056615;28;20098;-81
2022/06/05 09:15:05;;;;;;;7.95;2.42;;;29.10;94.30;;;;;;5056214;28;20071;-82
2022/06/05 09:17:35;;;;;;;7.15;2.13;;;29.30;94.90;;;;;;5057725;28;20049;-84
2022/06/05 09:20:06;;;;;;;7.68;1.83;;;29.30;92.10;;;;;;5058600;28;20053;-83
2022/06/05 09:22:47;;;;;;;10.23;1.95;;;29.40;91.10;;;;;;5060678;28;20148;-84
2022/06/05 09:25:42;;;;;;;3.55;1.63;;;29.40;91.80;;;;;;5059971;28;20056;-81
2022/06/05 09:28:44;;;;;;;8.90;2.08;;;29.60;91.30;;;;;;5059207;28;20045;-82
2022/06/05 09:31:35;;;;;;;7.47;2.15;;;29.70;93.00;;;;;;5042867;28;20056;-82
2022/06/05 09:34:11;;;;;;;4.38;1.67;;;29.80;91.60;;;;;;5047257;28;20041;-79
2022/06/05 09:36:40;;;;;;;;;;;30.00;91.10;;;;;;5039923;28;20148;-80
2022/06/05 09:39:22;;;;;;;9.43;2.08;;;30.20;90.40;;;;;;5059008;28;20373;-80
2022/06/05 09:42:05;;;;;;;8.43;2.08;;;30.30;88.60;;;;;;5061372;28;20178;-80
2022/06/05 09:44:53;;;;;;;8.77;2.20;;;30.50;90.40;;;;;;5055571;28;20053;-78
2022/06/05 09:47:25;;;;;;;9.07;4.05;;;30.70;86.10;;;;;;5044212;28;20131;-79
2022/06/05 09:49:58;;;;;;;7.15;2.00;;;30.70;85.50;;;;;;5049209;28;20481;-80
2022/06/05 09:52:28;;;;;;;5.70;2.50;;;30.80;86.20;;;;;;5064300;28;20682;-81
2022/06/05 09:55:04;;;;;;;4.90;1.80;;;31.00;87.30;;;;;;5054608;28;20472;-81
2022/06/05 10:01:22;;;;;;;6.65;2.30;;;31.00;85.20;;;;;;5020887;28;20347;-82
2022/06/05 10:03:51;;;;;;;5.57;1.73;;;31.00;86.00;;;;;;5023749;28;20050;-82
2022/06/05 10:06:26;;;;;;;9.48;2.22;;;31.10;85.60;;;;;;5024192;28;20061;-83
2022/06/05 10:08:57;;;;;;;9.52;2.03;;;31.20;85.60;;;;;;5023922;28;20212;-82
2022/06/05 10:11:33;;;;;;;4.95;1.48;;;31.30;87.10;;;;;;5011181;28;20522;-84
2022/06/05 10:14:22;;;;;;;7.55;1.75;;;31.40;87.00;;;;;;5009312;28;20103;-82
2022/06/05 10:17:04;;;;;;;8.38;1.95;;;31.30;85.30;;;;;;5008657;28;20080;-83
2022/06/05 10:19:54;;;;;;;7.82;1.98;;;31.40;85.60;;;;;;4987936;28;20050;-82
2022/06/05 10:22:34;;;;;;;4.47;1.33;;;31.40;87.40;;;;;;5022882;28;20060;-84
2022/06/05 10:25:15;;;;;;;8.32;1.38;;;31.50;86.60;;;;;;5016748;28;20568;-83
2022/06/05 10:27:51;;;;;;;6.97;1.90;;;31.60;85.20;;;;;;5004587;28;20060;-85
2022/06/05 10:30:26;;;;;;;6.28;1.52;;;31.70;85.20;;;;;;5015754;28;20077;-80
2022/06/05 10:33:03;;;;;;;4.57;1.38;;;31.60;84.10;;;;;;5049378;28;20150;-80
2022/06/05 10:39:23;;;;;;;5.95;1.70;;;31.50;85.80;;;;;;5063153;28;20032;-83
2022/06/05 10:42:08;;;;;;;12.63;1.83;;;31.70;85.50;;;;;;5044056;28;20041;-82
2022/06/05 10:44:47;;;;;;;4.70;1.50;;;31.80;84.90;;;;;;5058250;28;20071;-82
2022/06/05 10:47:28;;;;;;;4.70;1.65;;;32.00;84.40;;;;;;5065132;28;20127;-82
2022/06/05 10:50:05;;;;;;;6.43;2.08;;;32.10;84.70;;;;;;5065242;28;20059;-83
2022/06/05 10:52:38;;;;;;;8.77;2.20;;;32.20;83.70;;;;;;5064021;28;20044;-83
2022/06/05 10:55:30;;;;;;;6.85;1.65;;;32.10;84.70;;;;;;5066328;28;20055;-81
2022/06/05 10:58:10;;;;;;;5.63;2.28;;;31.80;85.40;;;;;;5058032;28;20052;-79
2022/06/05 11:00:53;;;;;;;7.82;2.22;;;31.80;86.50;;;;;;5045717;28;20127;-83
2022/06/05 11:03:33;;;;;;;6.72;2.15;;;32.00;86.20;;;;;;5061049;28;20059;-83
2022/06/05 11:06:14;;;;;;;4.75;1.75;;;32.10;85.30;;;;;;5065964;28;20044;-83
2022/06/05 11:08:55;;;;;;;6.32;1.98;;;32.30;86.00;;;;;;5066325;28;20106;-84
2022/06/05 11:14:22;;;;;;;4.75;2.15;;;32.60;86.10;;;;;;5060051;28;20092;-82
2022/06/05 11:17:11;;;;;;;8.35;2.20;;;32.70;86.90;;;;;;5063168;28;20059;-81
2022/06/05 11:19:53;;;;;;;7.65;1.88;;;32.60;86.70;;;;;;5061774;28;20044;-82
2022/06/05 11:22:22;;;;;;;9.50;1.92;;;32.40;87.40;;;;;;5075942;28;20044;-81
2022/06/05 11:24:52;;;;;;;4.65;1.98;;;32.40;88.30;;;;;;5067957;28;20123;-81
2022/06/05 11:27:29;;;;;;;9.02;1.80;;;32.40;87.90;;;;;;5062147;28;20139;-80
2022/06/05 11:30:04;;;;;;;6.63;1.83;;;32.30;87.40;;;;;;5060855;28;20045;-81
2022/06/05 11:32:47;;;;;;;6.55;1.55;;;32.40;87.60;;;;;;5065290;28;20052;-81
2022/06/05 11:35:27;;;;;;;9.18;1.73;;;32.40;89.40;;;;;;5065293;28;20221;-82
2022/06/05 11:38:01;;;;;;;6.25;1.88;;;32.30;89.50;;;;;;5062708;28;20396;-79
2022/06/05 11:40:45;;;;;;;7.80;1.92;;;32.10;89.40;;;;;;5052339;28;20049;-82
2022/06/05 11:43:33;;;;;;;6.18;1.70;;;32.10;90.00;;;;;;5059176;28;20135;-80
2022/06/05 11:46:25;;;;;;;;;;;32.30;90.00;;;;;;5047664;28;20068;-81
2022/06/05 11:49:05;;;;;;;9.32;2.10;;;32.40;91.80;;;;;;5062080;28;19955;-81
2022/06/05 11:51:48;;;;;;;9.82;2.40;;;32.60;92.10;;;;;;5039524;28;20453;-81
2022/06/05 11:54:20;;;;;;;15.98;3.03;;;32.10;93.30;;;;;;5064241;28;20530;-79
2022/06/05 11:57:16;;;;;;;11.27;3.03;;;31.60;96.70;;;;;;5063200;28;20040;-80
2022/06/05 11:59:50;;;;;;;8.90;2.88;;;31.30;96.70;;;;;;5011181;28;20048;-81
2022/06/05 12:02:54;;;;;;;11.43;2.88;;;31.00;96.70;;;;;;5055237;28;20138;-80
2022/06/05 12:05:36;;;;;;;12.55;2.72;;;30.70;96.70;;;;;;5053622;28;20521;-82
2022/06/05 12:08:09;;;;;;;11.63;2.80;;;30.10;96.70;;;;;;5060350;28;20045;-80
2022/06/05 12:10:50;;;;;;;8.77;2.50;;;29.80;96.70;;;;;;5053186;28;20052;-81
2022/06/05 12:13:34;;;;;;;12.88;3.25;;;29.40;96.70;;;;;;5059286;28;20127;-81
2022/06/05 12:16:08;;;;;;;11.55;2.92;;;29.20;96.70;;;;;;5061221;28;20049;-82
2022/06/05 12:18:44;;;;;;;8.85;2.75;;;29.10;96.70;;;;;;5055236;28;20048;-80
2022/06/05 12:21:18;;;;;;;8.70;2.35;;;29.10;96.70;;;;;;5062702;28;20131;-81
2022/06/05 12:23:54;;;;;;;10.55;3.03;;;29.00;96.70;;;;;;5054680;28;21721;-82
2022/06/05 12:26:44;;;;;;;8.07;2.78;;;28.90;96.70;;;;;;5057219;28;20170;-82
2022/06/05 12:29:19;;;;;;;10.98;2.92;;;29.00;96.70;;;;;;5063572;28;20051;-81
2022/06/05 12:31:52;;;;;;;11.57;3.33;;;29.00;96.70;;;;;;5045491;28;20342;-82
2022/06/05 12:34:24;;;;;;;10.18;3.38;;;29.00;96.70;;;;;;5053781;28;20109;-81
2022/06/05 12:36:58;;;;;;;9.30;2.67;;;28.80;96.70;;;;;;5059978;28;20072;-79
2022/06/05 12:39:33;;;;;;;8.48;2.97;;;28.70;96.70;;;;;;5057482;28;20060;-80
2022/06/05 12:42:30;;;;;;;10.45;3.17;;;28.80;96.70;;;;;;5048991;28;20519;-80
2022/06/05 12:45:19;;;;;;;13.90;3.40;;;28.90;96.70;;;;;;5055875;28;20080;-81
2022/06/05 12:48:03;;;;;;;9.50;2.83;;;28.90;96.70;;;;;;5051615;28;20115;-82
2022/06/05 12:50:55;;;;;;;11.65;2.50;;;28.70;96.70;;;;;;5042059;28;20055;-81
2022/06/05 12:53:29;;;;;;;10.45;3.72;;;28.80;96.70;;;;;;5054882;28;20049;-81
2022/06/05 12:56:07;;;;;;;10.10;3.20;;;29.20;96.70;;;;;;5057172;28;20052;-82
2022/06/05 12:58:46;;;;;;;11.98;3.90;;;29.40;96.70;;;;;;5038624;28;20593;-80
2022/06/05 13:01:20;;;;;;;10.10;2.95;;;29.70;96.70;;;;;;5040053;28;20053;-81
2022/06/05 13:03:57;;;;;;;10.95;3.17;;;29.90;96.70;;;;;;5055096;28;20134;-81
2022/06/05 13:06:44;;;;;;;18.98;3.15;;;30.10;96.70;;;;;;5040974;28;20523;-81
2022/06/05 13:09:22;;;;;;;7.90;2.85;;;30.40;96.70;;;;;;5059099;28;20499;-82
2022/06/05 13:11:59;;;;;;;12.98;3.58;;;30.30;96.70;;;;;;5053539;28;20045;-81
2022/06/05 13:14:41;;;;;;;10.05;2.80;;;30.50;96.70;;;;;;5039427;28;20094;-81
2022/06/05 13:17:17;;;;;;;7.30;2.90;;;30.80;96.70;;;;;;5060404;28;20098;-81
2022/06/05 13:19:51;;;;;;;11.27;3.42;;;30.80;96.70;;;;;;5070744;28;20049;-82
2022/06/05 13:22:26;;;;;;;12.10;3.38;;;30.80;96.70;;;;;;5045514;28;20052;-81
2022/06/05 13:25:00;;;;;;;8.85;2.75;;;31.00;96.70;;;;;;5054423;28;20051;-83
2022/06/05 13:27:49;;;;;;;8.77;3.03;;;31.10;96.70;;;;;;5046531;28;20052;-81
2022/06/05 13:30:20;;;;;;;13.25;2.97;;;31.00;96.70;;;;;;5060043;28;20060;-82
2022/06/05 13:32:57;;;;;;;11.27;3.17;;;31.30;96.70;;;;;;5056144;28;20045;-81
2022/06/05 13:35:42;;;;;;;8.77;2.95;;;31.60;96.70;;;;;;5065365;28;20049;-82
2022/06/05 13:38:19;;;;;;;7.88;2.80;;;32.00;96.70;;;;;;5059866;28;20064;-82
2022/06/05 13:41:03;;;;;;;9.63;3.17;;;32.10;96.70;;;;;;5062637;28;20647;-82
2022/06/05 13:43:37;;;;;;;9.23;3.13;;;32.30;96.70;;;;;;5064222;28;20569;-82
2022/06/05 13:46:17;;;;;;;12.05;2.95;;;32.50;96.70;;;;;;5058568;28;20536;-81
2022/06/05 13:48:55;;;;;;;9.90;3.50;;;32.60;96.70;;;;;;5060033;28;20065;-82